Time;durP1;ratioP1;P1;durP2;ratioP2;P2;SDS_P1;SDS_P2;PMS_P1;PMS_P2;Temp;Humidity;BMP_temperature;BMP_pressure;BME280_temperature;BME280_humidity;BME280_pressure;Samples;Min_cycle;Max_cycle;Signal;HPM_P1;HPM_P2
2022/06/23 00:01:13;;;;;;;3.10;1.80;;;;;;;;;;5051473;28;20221;-81
2022/06/23 00:03:41;;;;;;;1.70;1.60;;;;;;;;;;5051484;28;20190;-81
2022/06/23 00:06:10;;;;;;;2.07;1.60;;;;;;;;;;5038027;28;20257;-81
2022/06/23 00:08:44;;;;;;;4.93;1.90;;;;;;;;;;5031178;28;20585;-81
2022/06/23 00:11:24;;;;;;;2.90;1.73;;;;;;;;;;5031540;28;20198;-81
2022/06/23 00:13:54;;;;;;;2.60;1.63;;;;;;;;;;5031431;28;20616;-81
2022/06/23 00:16:26;;;;;;;2.40;2.20;;;;;;;;;;5031335;28;20203;-81
2022/06/23 00:18:53;;;;;;;1.60;1.50;;;;;;;;;;5031471;28;20214;-81
2022/06/23 00:21:23;;;;;;;2.17;1.80;;;;;;;;;;5033820;28;20234;-81
2022/06/23 00:23:53;;;;;;;6.33;2.00;;;;;;;;;;5035008;28;20203;-81
2022/06/23 00:26:23;;;;;;;4.47;2.60;;;;;;;;;;5035130;28;20207;-81
2022/06/23 00:28:52;;;;;;;6.70;2.40;;;;;;;;;;5035095;28;20191;-81
2022/06/23 00:31:26;;;;;;;6.80;1.80;;;;;;;;;;5035102;28;20217;-81
2022/06/23 00:33:54;;;;;;;3.87;2.20;;;;;;;;;;5035106;28;20265;-81
2022/06/23 00:36:29;;;;;;;1.80;1.67;;;;;;;;;;5045275;28;20202;-81
2022/06/23 00:38:57;;;;;;;2.93;2.10;;;;;;;;;;5054673;28;20190;-81
2022/06/23 00:41:30;;;;;;;4.53;2.00;;;;;;;;;;5054590;28;20228;-81
2022/06/23 00:44:00;;;;;;;5.17;2.03;;;;;;;;;;5054654;28;20201;-81
2022/06/23 00:46:30;;;;;;;5.10;2.17;;;;;;;;;;5054457;28;20276;-81
2022/06/23 00:49:03;;;;;;;2.53;2.10;;;;;;;;;;5054542;28;20236;-81
2022/06/23 00:51:33;;;;;;;2.87;1.83;;;;;;;;;;5054725;28;20643;-81
2022/06/23 00:54:04;;;;;;;3.73;2.10;;;;;;;;;;5054244;28;20232;-81
2022/06/23 00:56:44;;;;;;;3.77;2.03;;;;;;;;;;5054452;28;20244;-81
2022/06/23 00:59:15;;;;;;;2.83;2.47;;;;;;;;;;5054265;28;20190;-81
2022/06/23 01:01:47;;;;;;;1.90;1.80;;;;;;;;;;5054015;28;20252;-81
2022/06/23 01:04:21;;;;;;;3.83;2.67;;;;;;;;;;5053723;28;20190;-81
2022/06/23 01:06:51;;;;;;;4.10;1.90;;;;;;;;;;5054158;28;20244;-81
2022/06/23 01:09:24;;;;;;;2.80;2.03;;;;;;;;;;5053833;28;20192;-81
2022/06/23 01:11:55;;;;;;;6.57;2.23;;;;;;;;;;5054077;28;20194;-81
2022/06/23 01:14:34;;;;;;;1.97;1.87;;;;;;;;;;5053630;28;20193;-81
2022/06/23 01:17:07;;;;;;;5.57;2.20;;;;;;;;;;5054278;28;20217;-81
2022/06/23 01:20:08;;;;;;;4.13;2.20;;;;;;;;;;5053782;28;20190;-81
2022/06/23 01:22:53;;;;;;;6.00;2.57;;;;;;;;;;5053343;28;20221;-81
2022/06/23 01:25:31;;;;;;;6.17;1.80;;;;;;;;;;5054079;28;20182;-80
2022/06/23 01:28:04;;;;;;;1.83;1.73;;;;;;;;;;5053664;28;20182;-81
2022/06/23 01:30:34;;;;;;;3.07;1.90;;;;;;;;;;5053621;28;20190;-81
2022/06/23 01:33:08;;;;;;;1.87;1.77;;;;;;;;;;5053010;28;20186;-81
2022/06/23 01:35:40;;;;;;;5.93;1.60;;;;;;;;;;5053572;28;20191;-81
2022/06/23 01:38:14;;;;;;;2.37;1.80;;;;;;;;;;5053631;28;20277;-81
2022/06/23 01:40:45;;;;;;;2.63;1.53;;;;;;;;;;5053453;28;20677;-81
2022/06/23 01:43:17;;;;;;;1.60;1.50;;;;;;;;;;5053458;28;20186;-81
2022/06/23 01:45:51;;;;;;;3.20;1.83;;;;;;;;;;5053306;28;20190;-81
2022/06/23 01:48:51;;;;;;;3.70;1.53;;;;;;;;;;5053119;28;20186;-81
2022/06/23 01:51:21;;;;;;;4.30;1.63;;;;;;;;;;5052946;28;20281;-81
2022/06/23 01:53:48;;;;;;;2.97;1.53;;;;;;;;;;5043437;28;20198;-81
2022/06/23 01:56:33;;;;;;;5.00;2.13;;;;;;;;;;5033369;28;20202;-81
2022/06/23 01:59:12;;;;;;;1.60;1.50;;;;;;;;;;5043312;28;20205;-81
2022/06/23 02:01:47;;;;;;;2.23;1.53;;;;;;;;;;5052993;28;20582;-81
2022/06/23 02:04:18;;;;;;;11.97;1.73;;;;;;;;;;5053250;28;20186;-80
2022/06/23 02:06:48;;;;;;;1.83;1.73;;;;;;;;;;5050496;28;20209;-80
2022/06/23 02:09:22;;;;;;;2.37;1.73;;;;;;;;;;5052684;28;20197;-80
2022/06/23 02:11:51;;;;;;;1.70;1.47;;;;;;;;;;5052310;28;20239;-80
2022/06/23 02:14:37;;;;;;;2.07;1.90;;;;;;;;;;5052371;28;20201;-80
2022/06/23 02:17:12;;;;;;;1.87;1.77;;;;;;;;;;5052773;28;20186;-81
2022/06/23 02:19:44;;;;;;;2.23;1.50;;;;;;;;;;5052043;28;20192;-80
2022/06/23 02:22:15;;;;;;;1.70;1.40;;;;;;;;;;5052627;28;20301;-79
2022/06/23 02:24:48;;;;;;;3.13;1.77;;;;;;;;;;5052784;28;20186;-80
2022/06/23 02:27:20;;;;;;;1.60;1.50;;;;;;;;;;5052602;28;20190;-80
2022/06/23 02:29:53;;;;;;;2.63;2.10;;;;;;;;;;5052111;28;20197;-79
2022/06/23 02:32:24;;;;;;;6.47;1.60;;;;;;;;;;5052388;28;20186;-80
2022/06/23 02:34:55;;;;;;;4.07;1.60;;;;;;;;;;5052111;28;20563;-80
2022/06/23 02:37:56;;;;;;;2.17;1.97;;;;;;;;;;5052316;28;20240;-80
2022/06/23 02:40:37;;;;;;;2.77;1.70;;;;;;;;;;5037571;28;20232;-80
2022/06/23 02:43:12;;;;;;;2.67;1.80;;;;;;;;;;5052093;28;20178;-80
2022/06/23 02:46:18;;;;;;;3.97;1.80;;;;;;;;;;5038555;28;20209;-80
2022/06/23 02:49:03;;;;;;;3.77;1.50;;;;;;;;;;5032175;28;20203;-80
2022/06/23 02:51:43;;;;;;;2.07;1.83;;;;;;;;;;5032255;28;20656;-80
2022/06/23 02:54:30;;;;;;;5.43;2.07;;;;;;;;;;5031361;28;20240;-79
2022/06/23 02:57:23;;;;;;;1.87;1.63;;;;;;;;;;5033720;28;20190;-79
2022/06/23 02:59:53;;;;;;;2.63;1.60;;;;;;;;;;5051722;28;20671;-81
2022/06/23 03:02:28;;;;;;;2.60;1.50;;;;;;;;;;5051996;28;20287;-81
2022/06/23 03:05:00;;;;;;;1.63;1.53;;;;;;;;;;5051915;28;20200;-81
2022/06/23 03:07:30;;;;;;;2.17;1.80;;;;;;;;;;5052067;28;20186;-81
2022/06/23 03:10:04;;;;;;;5.43;1.50;;;;;;;;;;5051544;28;20206;-82
2022/06/23 03:12:37;;;;;;;2.20;1.37;;;;;;;;;;5051981;28;20209;-81
2022/06/23 03:15:11;;;;;;;2.80;2.17;;;;;;;;;;5051742;28;20182;-81
2022/06/23 03:17:41;;;;;;;1.73;1.43;;;;;;;;;;5052314;28;20239;-81
2022/06/23 03:20:14;;;;;;;2.70;1.77;;;;;;;;;;5051404;28;20225;-81
2022/06/23 03:22:47;;;;;;;1.53;1.43;;;;;;;;;;5051977;28;20210;-81
2022/06/23 03:25:22;;;;;;;2.17;1.53;;;;;;;;;;5051761;28;20209;-81
2022/06/23 03:28:00;;;;;;;2.10;1.53;;;;;;;;;;5051364;28;20193;-81
2022/06/23 03:30:32;;;;;;;3.70;1.90;;;;;;;;;;5051459;28;20190;-81
2022/06/23 03:33:03;;;;;;;4.17;1.70;;;;;;;;;;5052023;28;20182;-81
2022/06/23 03:35:38;;;;;;;5.40;2.03;;;;;;;;;;5051984;28;20194;-80
2022/06/23 03:38:09;;;;;;;11.93;3.27;;;;;;;;;;5051895;28;20188;-80
2022/06/23 03:43:34;;;;;;;3.73;1.90;;;;;;;;;;5052128;28;20185;-81
2022/06/23 03:46:06;;;;;;;2.43;1.70;;;;;;;;;;5052063;28;20181;-81
2022/06/23 03:48:37;;;;;;;2.17;1.63;;;;;;;;;;5051729;28;20179;-81
2022/06/23 03:51:12;;;;;;;3.07;1.70;;;;;;;;;;5051978;28;20190;-81
2022/06/23 03:53:48;;;;;;;3.53;2.10;;;;;;;;;;5051734;28;20196;-81
2022/06/23 03:56:18;;;;;;;2.93;1.70;;;;;;;;;;5054402;28;20186;-81
2022/06/23 03:58:51;;;;;;;1.77;1.67;;;;;;;;;;5048213;28;20202;-87
2022/06/23 04:01:23;;;;;;;3.23;1.73;;;;;;;;;;5044389;28;20206;-87
2022/06/23 04:03:54;;;;;;;2.93;1.57;;;;;;;;;;5035393;28;20191;-85
2022/06/23 04:06:33;;;;;;;2.67;1.93;;;;;;;;;;5035181;28;20739;-86
2022/06/23 04:09:08;;;;;;;2.07;1.73;;;;;;;;;;5035509;28;20280;-87
2022/06/23 04:11:45;;;;;;;3.37;1.37;;;;;;;;;;5035120;28;20653;-87
2022/06/23 04:14:17;;;;;;;1.77;1.67;;;;;;;;;;5036059;28;20222;-87
2022/06/23 04:16:44;;;;;;;2.47;1.80;;;;;;;;;;5035444;28;20276;-87
2022/06/23 04:19:16;;;;;;;3.30;2.00;;;;;;;;;;5035533;28;20256;-87
2022/06/23 04:21:48;;;;;;;6.10;2.20;;;;;;;;;;5035191;28;20769;-87
2022/06/23 04:24:19;;;;;;;3.40;1.70;;;;;;;;;;5052067;28;20256;-88
2022/06/23 04:26:49;;;;;;;2.17;1.80;;;;;;;;;;5055104;28;20186;-88
2022/06/23 04:29:21;;;;;;;2.73;2.00;;;;;;;;;;5055020;28;20190;-88
2022/06/23 04:31:51;;;;;;;3.63;1.80;;;;;;;;;;5055007;28;20190;-88
2022/06/23 04:34:21;;;;;;;2.10;1.70;;;;;;;;;;5055251;28;20260;-87
2022/06/23 04:36:51;;;;;;;3.10;1.90;;;;;;;;;;5055036;28;20277;-87
2022/06/23 04:39:22;;;;;;;2.70;1.90;;;;;;;;;;5054924;28;20204;-88
2022/06/23 04:41:52;;;;;;;5.10;2.40;;;;;;;;;;5055356;28;20597;-88
2022/06/23 04:44:24;;;;;;;1.57;1.47;;;;;;;;;;5055030;28;20256;-88
2022/06/23 04:46:54;;;;;;;2.90;1.80;;;;;;;;;;5054923;28;20194;-88
2022/06/23 04:49:24;;;;;;;2.60;2.03;;;;;;;;;;5054789;28;20248;-88
2022/06/23 04:51:55;;;;;;;3.63;1.70;;;;;;;;;;5054938;28;20185;-88
2022/06/23 04:54:25;;;;;;;1.70;1.60;;;;;;;;;;5055160;28;20190;-87
2022/06/23 04:56:56;;;;;;;1.70;1.60;;;;;;;;;;5054850;28;20252;-88
2022/06/23 04:59:33;;;;;;;1.60;1.47;;;;;;;;;;5052199;28;20198;-88
2022/06/23 05:02:04;;;;;;;1.90;1.50;;;;;;;;;;5034803;28;20210;-88
2022/06/23 05:04:35;;;;;;;2.13;1.63;;;;;;;;;;5054570;28;20208;-88
2022/06/23 05:07:04;;;;;;;1.70;1.60;;;;;;;;;;5054024;28;20275;-88
2022/06/23 05:09:34;;;;;;;9.13;2.50;;;;;;;;;;5054864;28;20202;-88
2022/06/23 05:12:04;;;;;;;2.37;2.03;;;;;;;;;;5054605;28;20616;-88
2022/06/23 05:14:35;;;;;;;3.40;2.03;;;;;;;;;;5050219;28;20236;-88
2022/06/23 05:17:07;;;;;;;2.37;2.00;;;;;;;;;;5054341;28;20182;-88
2022/06/23 05:19:38;;;;;;;4.60;2.17;;;;;;;;;;5054388;28;20713;-88
2022/06/23 05:22:13;;;;;;;3.07;2.00;;;;;;;;;;5054471;28;20637;-87
2022/06/23 05:24:42;;;;;;;5.27;1.97;;;;;;;;;;5054552;28;20190;-88
2022/06/23 05:27:16;;;;;;;5.40;1.97;;;;;;;;;;5054312;28;20202;-87
2022/06/23 05:29:46;;;;;;;8.23;2.80;;;;;;;;;;5054250;28;20645;-88
2022/06/23 05:32:17;;;;;;;7.17;2.67;;;;;;;;;;5054667;28;20190;-89
2022/06/23 05:34:49;;;;;;;8.53;3.00;;;;;;;;;;5054511;28;20182;-88
2022/06/23 05:37:21;;;;;;;6.93;2.40;;;;;;;;;;5053918;28;20186;-88
2022/06/23 05:39:52;;;;;;;2.80;2.43;;;;;;;;;;5054095;28;20618;-88
2022/06/23 05:42:23;;;;;;;4.97;2.30;;;;;;;;;;5053904;28;20206;-88
2022/06/23 05:44:52;;;;;;;8.10;2.37;;;;;;;;;;5053856;28;20182;-88
2022/06/23 05:47:20;;;;;;;5.67;2.07;;;;;;;;;;5053870;28;20202;-89
2022/06/23 05:49:51;;;;;;;3.73;1.97;;;;;;;;;;5053926;28;20224;-88
2022/06/23 05:52:22;;;;;;;4.97;2.40;;;;;;;;;;5054176;28;20193;-88
2022/06/23 05:54:53;;;;;;;4.63;2.00;;;;;;;;;;5054125;28;20194;-88
2022/06/23 05:57:22;;;;;;;7.63;2.60;;;;;;;;;;5053575;28;20182;-88
2022/06/23 05:59:56;;;;;;;3.27;2.50;;;;;;;;;;5053576;28;20659;-88
2022/06/23 06:02:28;;;;;;;9.53;2.50;;;;;;;;;;5053657;28;20238;-88
2022/06/23 06:04:56;;;;;;;8.87;2.10;;;;;;;;;;5054108;28;20190;-88
2022/06/23 06:07:28;;;;;;;9.83;2.30;;;;;;;;;;5053560;28;20194;-88
2022/06/23 06:09:56;;;;;;;6.57;2.13;;;;;;;;;;5053706;28;20191;-88
2022/06/23 06:12:30;;;;;;;4.43;2.73;;;;;;;;;;5053739;28;20252;-88
2022/06/23 06:15:04;;;;;;;7.50;2.50;;;;;;;;;;5053269;28;20248;-88
2022/06/23 06:17:33;;;;;;;3.87;2.40;;;;;;;;;;5053479;28;20651;-88
2022/06/23 06:20:04;;;;;;;6.77;2.13;;;;;;;;;;5053032;28;20721;-88
2022/06/23 06:22:41;;;;;;;2.77;2.50;;;;;;;;;;5053070;28;20209;-88
2022/06/23 06:25:17;;;;;;;8.70;2.37;;;;;;;;;;5053727;28;20193;-89
2022/06/23 06:27:55;;;;;;;4.23;2.30;;;;;;;;;;5053094;28;20243;-88
2022/06/23 06:30:26;;;;;;;3.97;1.90;;;;;;;;;;5053356;28;20198;-88
2022/06/23 06:32:54;;;;;;;4.90;2.43;;;;;;;;;;5053619;28;20186;-88
2022/06/23 06:35:28;;;;;;;7.57;2.90;;;;;;;;;;5053169;28;20251;-88
2022/06/23 06:38:00;;;;;;;6.40;2.40;;;;;;;;;;5053613;28;20221;-88
2022/06/23 06:40:27;;;;;;;7.90;2.27;;;;;;;;;;5052840;28;20196;-88
2022/06/23 06:42:58;;;;;;;2.80;2.43;;;;;;;;;;5053274;28;20260;-89
2022/06/23 06:45:29;;;;;;;19.20;3.47;;;;;;;;;;5052785;28;20220;-88
2022/06/23 06:47:56;;;;;;;24.43;3.67;;;;;;;;;;5053292;28;20186;-88
2022/06/23 06:50:29;;;;;;;9.97;2.70;;;;;;;;;;5052991;28;20567;-88
2022/06/23 06:52:59;;;;;;;9.07;3.27;;;;;;;;;;5052658;28;20182;-88
2022/06/23 06:55:28;;;;;;;13.07;3.60;;;;;;;;;;5052682;28;20208;-89
2022/06/23 06:57:58;;;;;;;4.83;2.37;;;;;;;;;;5052995;28;20198;-88
2022/06/23 07:00:29;;;;;;;4.80;2.70;;;;;;;;;;5052763;28;20725;-89
2022/06/23 07:02:59;;;;;;;4.47;2.30;;;;;;;;;;5052646;28;20252;-88
2022/06/23 07:05:32;;;;;;;4.57;2.30;;;;;;;;;;5052891;28;20197;-89
2022/06/23 07:08:10;;;;;;;5.60;2.80;;;;;;;;;;5052955;28;20608;-89
2022/06/23 07:10:41;;;;;;;2.43;2.13;;;;;;;;;;5052941;28;20205;-87
2022/06/23 07:13:11;;;;;;;5.43;2.73;;;;;;;;;;5052922;28;20190;-90
2022/06/23 07:15:41;;;;;;;5.43;2.20;;;;;;;;;;5052962;28;20201;-89
2022/06/23 07:18:15;;;;;;;6.63;2.47;;;;;;;;;;5052877;28;20193;-90
2022/06/23 07:20:44;;;;;;;3.50;2.30;;;;;;;;;;5053532;28;20283;-90
2022/06/23 07:23:18;;;;;;;4.13;2.83;;;;;;;;;;5057531;28;20713;-90
2022/06/23 07:25:51;;;;;;;3.47;2.40;;;;;;;;;;5060129;28;20177;-90
2022/06/23 07:28:22;;;;;;;2.60;2.40;;;;;;;;;;5060178;28;20217;-90
2022/06/23 07:30:52;;;;;;;2.90;2.40;;;;;;;;;;5060520;28;20193;-90
2022/06/23 07:33:24;;;;;;;4.17;2.70;;;;;;;;;;5063327;28;20217;-91
2022/06/23 07:35:57;;;;;;;5.20;2.00;;;;;;;;;;5062239;28;20178;-91
2022/06/23 07:38:29;;;;;;;8.53;2.43;;;;;;;;;;5062001;28;20182;-92
2022/06/23 07:40:58;;;;;;;4.67;2.67;;;;;;;;;;5059309;28;20224;-91
2022/06/23 07:43:29;;;;;;;2.50;2.10;;;;;;;;;;5060995;28;20279;-92
2022/06/23 07:45:58;;;;;;;3.27;2.40;;;;;;;;;;5063117;28;20186;-91
2022/06/23 07:48:26;;;;;;;4.93;2.50;;;;;;;;;;5063572;28;20202;-92
2022/06/23 07:50:55;;;;;;;2.07;1.97;;;;;;;;;;5062674;28;20675;-92
2022/06/23 07:53:24;;;;;;;2.57;2.37;;;;;;;;;;5063889;28;20202;-92
2022/06/23 07:55:53;;;;;;;4.53;2.57;;;;;;;;;;5063975;28;20633;-91
2022/06/23 07:58:22;;;;;;;2.43;2.07;;;;;;;;;;5064283;28;20289;-92
2022/06/23 08:00:52;;;;;;;2.67;2.47;;;;;;;;;;5064790;28;20296;-93
2022/06/23 08:03:24;;;;;;;2.83;2.53;;;;;;;;;;5059599;28;20221;-92
2022/06/23 08:05:53;;;;;;;3.43;2.27;;;;;;;;;;5057101;28;20277;-92
2022/06/23 08:08:22;;;;;;;3.30;2.80;;;;;;;;;;5057799;28;20201;-92
2022/06/23 08:12:53;;;;;;;5.07;2.80;;;;;;;;;;5056836;28;20679;-93
2022/06/23 08:13:43;;;;;;;2.47;2.27;;;;;;;;;;5057166;28;20175;-92
2022/06/23 08:19:00;;;;;;;4.93;2.70;;;;;;;;;;5056899;28;20196;-93
2022/06/23 08:21:30;;;;;;;2.97;2.13;;;;;;;;;;5056192;28;20232;-92
2022/06/23 08:24:01;;;;;;;2.40;2.20;;;;;;;;;;5056098;28;20267;-91
2022/06/23 08:26:30;;;;;;;2.47;2.23;;;;;;;;;;5056234;28;20194;-92
2022/06/23 08:29:01;;;;;;;2.00;1.90;;;;;;;;;;5056338;28;20202;-92
2022/06/23 08:31:29;;;;;;;2.83;2.00;;;;;;;;;;5056158;28;20198;-93
2022/06/23 08:33:58;;;;;;;4.27;2.50;;;;;;;;;;5056070;28;20198;-92
2022/06/23 08:36:29;;;;;;;12.67;2.30;;;;;;;;;;5055667;28;20259;-91
2022/06/23 08:39:01;;;;;;;2.40;2.20;;;;;;;;;;5056108;28;20712;-92
2022/06/23 08:41:37;;;;;;;3.67;2.60;;;;;;;;;;5056403;28;20581;-92
2022/06/23 08:44:08;;;;;;;4.20;2.43;;;;;;;;;;5055525;28;20225;-91
2022/06/23 08:46:39;;;;;;;2.60;2.40;;;;;;;;;;5056370;28;20196;-93
2022/06/23 08:49:10;;;;;;;3.63;3.07;;;;;;;;;;5056601;28;20194;-91
2022/06/23 08:51:53;;;;;;;5.90;3.10;;;;;;;;;;5055900;28;20198;-93
2022/06/23 08:54:26;;;;;;;3.70;3.30;;;;;;;;;;5055708;28;20280;-93
2022/06/23 08:56:59;;;;;;;3.93;3.03;;;;;;;;;;5055485;28;20544;-93
2022/06/23 08:59:31;;;;;;;4.77;2.97;;;;;;;;;;5055412;28;20197;-91
2022/06/23 09:02:06;;;;;;;5.17;2.50;;;;;;;;;;5055198;28;20183;-92
2022/06/23 09:04:46;;;;;;;4.93;2.40;;;;;;;;;;5056103;28;20231;-92
2022/06/23 09:07:21;;;;;;;5.33;2.67;;;;;;;;;;5055200;28;20743;-92
2022/06/23 09:09:52;;;;;;;3.00;2.67;;;;;;;;;;5055337;28;20198;-91
2022/06/23 09:12:26;;;;;;;2.53;2.10;;;;;;;;;;5055515;28;20202;-90
2022/06/23 09:15:32;;;;;;;3.67;2.80;;;;;;;;;;5055208;28;20190;-91
2022/06/23 09:18:09;;;;;;;2.60;2.40;;;;;;;;;;5056031;28;20687;-91
2022/06/23 09:21:04;;;;;;;3.33;2.60;;;;;;;;;;5055193;28;20264;-91
2022/06/23 09:23:50;;;;;;;2.50;2.23;;;;;;;;;;5051186;28;20283;-90
2022/06/23 09:26:22;;;;;;;4.20;2.83;;;;;;;;;;5055286;28;20251;-91
2022/06/23 09:28:55;;;;;;;2.60;2.40;;;;;;;;;;5055288;28;20186;-92
2022/06/23 09:31:37;;;;;;;2.83;2.47;;;;;;;;;;5055301;28;20244;-92
2022/06/23 09:34:18;;;;;;;2.70;2.50;;;;;;;;;;5054873;28;20198;-92
2022/06/23 09:37:01;;;;;;;3.30;2.20;;;;;;;;;;5055074;28;20567;-92
2022/06/23 09:40:03;;;;;;;2.83;2.60;;;;;;;;;;5054211;28;20193;-92
2022/06/23 09:42:45;;;;;;;2.37;2.17;;;;;;;;;;5055046;28;20216;-92
2022/06/23 09:45:28;;;;;;;2.57;2.37;;;;;;;;;;5054290;28;20205;-92
2022/06/23 09:48:11;;;;;;;2.37;2.17;;;;;;;;;;5054678;28;20186;-91
2022/06/23 09:50:59;;;;;;;4.07;2.80;;;;;;;;;;5054381;28;20194;-91
2022/06/23 09:53:45;;;;;;;4.50;2.63;;;;;;;;;;5053939;28;20186;-91
2022/06/23 09:56:36;;;;;;;3.03;2.70;;;;;;;;;;5053867;28;20186;-90
2022/06/23 09:59:44;;;;;;;5.13;2.70;;;;;;;;;;5053979;28;20201;-90
2022/06/23 10:02:22;;;;;;;4.47;2.70;;;;;;;;;;4992112;28;20671;-90
2022/06/23 10:05:03;;;;;;;3.50;2.50;;;;;;;;;;5053943;28;20266;-90
2022/06/23 10:07:41;;;;;;;2.73;2.53;;;;;;;;;;5053984;28;20674;-89
2022/06/23 10:10:15;;;;;;;2.70;2.47;;;;;;;;;;5053935;28;20193;-89
2022/06/23 10:12:53;;;;;;;3.73;2.63;;;;;;;;;;5054177;28;20618;-89
2022/06/23 10:15:40;;;;;;;3.50;3.23;;;;;;;;;;5053559;28;20193;-89
2022/06/23 10:18:36;;;;;;;4.13;2.70;;;;;;;;;;5053865;28;20193;-89
2022/06/23 10:21:14;;;;;;;2.80;2.50;;;;;;;;;;5037223;28;20226;-89
2022/06/23 10:24:04;;;;;;;4.23;2.20;;;;;;;;;;5053740;28;20600;-90
2022/06/23 10:26:42;;;;;;;3.10;2.37;;;;;;;;;;5053578;28;20236;-89
2022/06/23 10:29:30;;;;;;;2.80;2.07;;;;;;;;;;5053704;28;20189;-89
2022/06/23 10:32:32;;;;;;;3.47;2.10;;;;;;;;;;5053719;28;20194;-89
2022/06/23 10:35:14;;;;;;;3.13;2.60;;;;;;;;;;5048614;28;20193;-90
2022/06/23 10:38:06;;;;;;;3.13;2.37;;;;;;;;;;5053259;28;20197;-89
2022/06/23 10:40:46;;;;;;;4.53;1.93;;;;;;;;;;5053040;28;20193;-89
2022/06/23 10:43:30;;;;;;;2.33;2.10;;;;;;;;;;5053338;28;20196;-90
2022/06/23 10:46:00;;;;;;;5.07;2.40;;;;;;;;;;5053455;28;20186;-89
2022/06/23 10:48:49;;;;;;;2.53;2.33;;;;;;;;;;5053238;28;20190;-90
2022/06/23 10:51:31;;;;;;;3.37;2.33;;;;;;;;;;5053475;28;20182;-90
2022/06/23 10:54:16;;;;;;;2.67;2.40;;;;;;;;;;5053163;28;20189;-90
2022/06/23 10:57:16;;;;;;;2.67;2.47;;;;;;;;;;5053744;28;20182;-90
2022/06/23 10:59:54;;;;;;;2.93;2.30;;;;;;;;;;5053059;28;20198;-91
2022/06/23 11:02:56;;;;;;;3.73;2.83;;;;;;;;;;5053246;28;20190;-90
2022/06/23 11:05:45;;;;;;;4.13;2.60;;;;;;;;;;5052369;28;20210;-91
2022/06/23 11:08:25;;;;;;;2.40;2.20;;;;;;;;;;5052631;28;20236;-91
2022/06/23 11:11:01;;;;;;;5.10;2.90;;;;;;;;;;5052671;28;20182;-91
2022/06/23 11:13:35;;;;;;;3.73;3.27;;;;;;;;;;5053000;28;20255;-91
2022/06/23 11:16:16;;;;;;;4.70;2.87;;;;;;;;;;5053035;28;20263;-91
2022/06/23 11:18:56;;;;;;;4.30;2.53;;;;;;;;;;5052865;28;20190;-91
2022/06/23 11:21:35;;;;;;;2.60;2.40;;;;;;;;;;5052516;28;20237;-93
2022/06/23 11:24:07;;;;;;;4.87;3.27;;;;;;;;;;5052463;28;20221;-91
2022/06/23 11:26:44;;;;;;;4.87;2.80;;;;;;;;;;5052683;28;20209;-92
2022/06/23 11:29:28;;;;;;;2.97;2.77;;;;;;;;;;5052514;28;20239;-91
2022/06/23 11:31:59;;;;;;;3.60;3.30;;;;;;;;;;5053020;28;20195;-92
2022/06/23 11:34:49;;;;;;;6.40;3.20;;;;;;;;;;5053307;28;20330;-92
2022/06/23 11:37:29;;;;;;;8.10;4.10;;;;;;;;;;5050614;28;20206;-91
2022/06/23 11:40:21;;;;;;;3.50;3.20;;;;;;;;;;5052689;28;20190;-92
2022/06/23 11:43:04;;;;;;;4.77;3.47;;;;;;;;;;5052768;28;20186;-92
2022/06/23 11:45:36;;;;;;;5.20;4.07;;;;;;;;;;5052757;28;20721;-92
2022/06/23 11:48:13;;;;;;;4.00;3.33;;;;;;;;;;5052813;28;20190;-91
2022/06/23 11:50:45;;;;;;;5.83;3.50;;;;;;;;;;5053161;28;20583;-93
2022/06/23 11:53:34;;;;;;;5.13;4.13;;;;;;;;;;5052775;28;20205;-92
2022/06/23 11:56:09;;;;;;;5.43;3.07;;;;;;;;;;5052931;28;20671;-92
2022/06/23 11:58:58;;;;;;;5.00;3.13;;;;;;;;;;5052448;28;20205;-92
2022/06/23 12:01:28;;;;;;;3.03;2.80;;;;;;;;;;5052757;28;20186;-92
2022/06/23 12:04:45;;;;;;;4.67;3.63;;;;;;;;;;5052560;28;20237;-92
2022/06/23 12:07:37;;;;;;;4.17;3.33;;;;;;;;;;5002785;28;20633;-93
2022/06/23 12:10:13;;;;;;;3.60;3.30;;;;;;;;;;5053198;28;20202;-93
2022/06/23 12:12:43;;;;;;;4.03;2.80;;;;;;;;;;5052451;28;20220;-92
2022/06/23 12:15:13;;;;;;;6.47;3.30;;;;;;;;;;5052404;28;20324;-92
2022/06/23 12:17:43;;;;;;;4.97;2.67;;;;;;;;;;5055801;28;20293;-92
2022/06/23 12:20:15;;;;;;;3.93;3.57;;;;;;;;;;5056195;28;20718;-93
2022/06/23 12:22:48;;;;;;;6.63;3.00;;;;;;;;;;5056194;28;20643;-92
2022/06/23 12:25:22;;;;;;;3.13;2.63;;;;;;;;;;5055763;28;20225;-92
2022/06/23 12:27:57;;;;;;;5.17;3.20;;;;;;;;;;5055816;28;20200;-92
2022/06/23 12:30:25;;;;;;;2.77;2.53;;;;;;;;;;5055907;28;20197;-92
2022/06/23 12:32:58;;;;;;;3.83;3.00;;;;;;;;;;5055994;28;20591;-90
2022/06/23 12:35:30;;;;;;;4.53;2.63;;;;;;;;;;5055783;28;20202;-91
2022/06/23 12:38:05;;;;;;;3.20;2.90;;;;;;;;;;5056427;28;20619;-92
2022/06/23 12:40:37;;;;;;;7.43;2.97;;;;;;;;;;5055819;28;20204;-92
2022/06/23 12:43:10;;;;;;;4.00;3.27;;;;;;;;;;5055772;28;20190;-93
2022/06/23 12:45:53;;;;;;;3.07;2.53;;;;;;;;;;5055386;28;20275;-90
2022/06/23 12:48:55;;;;;;;4.07;2.63;;;;;;;;;;5044306;28;20600;-89
2022/06/23 12:51:30;;;;;;;3.53;3.30;;;;;;;;;;5035134;28;20194;-90
2022/06/23 12:54:12;;;;;;;3.40;3.10;;;;;;;;;;5045568;28;20205;-88
2022/06/23 12:56:56;;;;;;;3.73;3.00;;;;;;;;;;5055441;28;20190;-90
2022/06/23 12:59:30;;;;;;;4.17;2.87;;;;;;;;;;5054992;28;20186;-90
2022/06/23 13:01:59;;;;;;;4.10;2.73;;;;;;;;;;5051286;28;20263;-89
2022/06/23 13:04:31;;;;;;;2.80;2.60;;;;;;;;;;5054940;28;20236;-89
2022/06/23 13:07:05;;;;;;;3.00;2.70;;;;;;;;;;5055127;28;20202;-88
2022/06/23 13:09:40;;;;;;;2.53;2.33;;;;;;;;;;5054960;28;20194;-87
2022/06/23 13:12:10;;;;;;;3.73;2.80;;;;;;;;;;5055468;28;20189;-90
2022/06/23 13:14:44;;;;;;;2.97;2.77;;;;;;;;;;5055306;28;20198;-88
2022/06/23 13:17:21;;;;;;;3.50;2.70;;;;;;;;;;5054950;28;20194;-89
2022/06/23 13:19:54;;;;;;;4.87;2.83;;;;;;;;;;5054721;28;20546;-90
2022/06/23 13:22:21;;;;;;;2.87;2.67;;;;;;;;;;5055128;28;20190;-90
2022/06/23 13:24:53;;;;;;;4.27;2.90;;;;;;;;;;5054795;28;20225;-90
2022/06/23 13:27:22;;;;;;;3.93;2.80;;;;;;;;;;5054172;28;20666;-89
2022/06/23 13:29:55;;;;;;;3.03;2.73;;;;;;;;;;5054869;28;20695;-90
2022/06/23 13:32:28;;;;;;;2.67;2.47;;;;;;;;;;5054645;28;20189;-89
2022/06/23 13:35:00;;;;;;;2.67;2.30;;;;;;;;;;5054987;28;20280;-90
2022/06/23 13:37:34;;;;;;;3.83;2.50;;;;;;;;;;5054484;28;20186;-89
2022/06/23 13:40:06;;;;;;;3.97;2.50;;;;;;;;;;5054517;28;20186;-89
2022/06/23 13:42:44;;;;;;;2.50;2.30;;;;;;;;;;5054655;28;20190;-89
2022/06/23 13:45:26;;;;;;;3.53;2.30;;;;;;;;;;5054449;28;20206;-89
2022/06/23 13:47:56;;;;;;;3.77;2.10;;;;;;;;;;5054928;28;20247;-89
2022/06/23 13:50:27;;;;;;;3.67;2.60;;;;;;;;;;5054077;28;20208;-88
2022/06/23 13:53:00;;;;;;;2.87;2.57;;;;;;;;;;5052459;28;20194;-89
2022/06/23 13:55:33;;;;;;;2.60;2.40;;;;;;;;;;5054118;28;20622;-88
2022/06/23 13:58:04;;;;;;;3.23;2.43;;;;;;;;;;5054275;28;20193;-88
2022/06/23 14:00:37;;;;;;;2.73;2.40;;;;;;;;;;5053757;28;20190;-88
2022/06/23 14:03:08;;;;;;;6.27;3.13;;;;;;;;;;5054147;28;20186;-90
2022/06/23 14:05:38;;;;;;;3.60;2.53;;;;;;;;;;5053891;28;20205;-87
2022/06/23 14:08:12;;;;;;;2.43;2.23;;;;;;;;;;5053386;28;20197;-87
2022/06/23 14:10:43;;;;;;;3.03;2.57;;;;;;;;;;5053214;28;20190;-87
2022/06/23 14:13:16;;;;;;;2.23;2.00;;;;;;;;;;5052918;28;20178;-87
2022/06/23 14:15:50;;;;;;;4.00;2.83;;;;;;;;;;5053326;28;20647;-87
2022/06/23 14:18:23;;;;;;;34.60;8.20;;;;;;;;;;5052939;28;20617;-87
2022/06/23 14:20:55;;;;;;;5.57;3.43;;;;;;;;;;5052386;28;20229;-86
2022/06/23 14:23:25;;;;;;;22.17;6.17;;;;;;;;;;5052853;28;20713;-86
2022/06/23 14:25:57;;;;;;;151.83;38.83;;;;;;;;;;5052774;28;20287;-86
2022/06/23 14:28:30;;;;;;;27.00;9.13;;;;;;;;;;5053102;28;20193;-86
2022/06/23 14:31:02;;;;;;;16.23;4.40;;;;;;;;;;5052483;28;20248;-86
2022/06/23 14:33:33;;;;;;;2.90;2.00;;;;;;;;;;5053010;28;20186;-86
2022/06/23 14:36:03;;;;;;;2.50;2.30;;;;;;;;;;5052978;28;20183;-86
2022/06/23 14:38:36;;;;;;;4.60;2.60;;;;;;;;;;5052709;28;20631;-87
2022/06/23 14:41:15;;;;;;;3.37;2.80;;;;;;;;;;5052715;28;20578;-87
2022/06/23 14:43:54;;;;;;;2.43;2.23;;;;;;;;;;5052912;28;20186;-87
2022/06/23 14:46:28;;;;;;;2.50;2.30;;;;;;;;;;5052652;28;20752;-87
2022/06/23 14:49:24;;;;;;;2.67;2.47;;;;;;;;;;5052269;28;20280;-87
2022/06/23 14:51:57;;;;;;;2.50;2.37;;;;;;;;;;5052796;28;20701;-87
2022/06/23 14:54:31;;;;;;;2.50;2.30;;;;;;;;;;5052540;28;20245;-86
2022/06/23 14:57:03;;;;;;;6.10;2.80;;;;;;;;;;5043033;28;20247;-85
2022/06/23 14:59:34;;;;;;;2.63;2.40;;;;;;;;;;5032410;28;20194;-87
2022/06/23 15:02:15;;;;;;;2.90;2.60;;;;;;;;;;5032594;28;20187;-87
2022/06/23 15:04:49;;;;;;;3.27;2.73;;;;;;;;;;5032509;28;20201;-87
2022/06/23 15:07:21;;;;;;;3.27;2.17;;;;;;;;;;5032184;28;20198;-87
2022/06/23 15:09:54;;;;;;;3.07;2.47;;;;;;;;;;5032032;28;20249;-86
2022/06/23 15:12:24;;;;;;;2.73;2.50;;;;;;;;;;5032763;28;20644;-86
2022/06/23 15:14:59;;;;;;;3.20;2.50;;;;;;;;;;5032568;28;20624;-86
2022/06/23 15:17:31;;;;;;;4.00;2.50;;;;;;;;;;5032181;28;20194;-87
2022/06/23 15:20:01;;;;;;;2.90;2.60;;;;;;;;;;5032102;28;20648;-87
2022/06/23 15:25:23;;;;;;;2.60;2.40;;;;;;;;;;5032238;28;20288;-87
2022/06/23 15:27:54;;;;;;;3.23;2.93;;;;;;;;;;5032260;28;20623;-87
2022/06/23 15:30:25;;;;;;;4.93;2.90;;;;;;;;;;5032273;28;20198;-87
2022/06/23 15:32:58;;;;;;;2.87;2.67;;;;;;;;;;5032408;28;20186;-87
2022/06/23 15:35:33;;;;;;;4.03;2.87;;;;;;;;;;5032565;28;20183;-87
2022/06/23 15:38:19;;;;;;;3.27;2.07;;;;;;;;;;5032153;28;20194;-86